sensor_id;sensor_type;location;lat;lon;timestamp;P1;durP1;ratioP1;P2;durP2;ratioP2
5684;SDS011;2865;53.114;9.130;2022-11-20T00:01:43;20.33;;;15.30;;
5684;SDS011;2865;53.114;9.130;2022-11-20T00:04:08;19.27;;;14.30;;
5684;SDS011;2865;53.114;9.130;2022-11-20T00:06:33;23.83;;;15.50;;
5684;SDS011;2865;53.114;9.130;2022-11-20T00:08:59;19.40;;;15.00;;
5684;SDS011;2865;53.114;9.130;2022-11-20T00:11:24;21.50;;;15.67;;
5684;SDS011;2865;53.114;9.130;2022-11-20T00:13:51;25.70;;;16.70;;
5684;SDS011;2865;53.114;9.130;2022-11-20T00:16:16;21.90;;;14.63;;
5684;SDS011;2865;53.114;9.130;2022-11-20T00:18:40;19.37;;;14.50;;
5684;SDS011;2865;53.114;9.130;2022-11-20T00:21:07;18.27;;;14.20;;
5684;SDS011;2865;53.114;9.130;2022-11-20T00:23:31;23.87;;;15.73;;
5684;SDS011;2865;53.114;9.130;2022-11-20T00:26:00;16.53;;;13.77;;
5684;SDS011;2865;53.114;9.130;2022-11-20T00:28:22;20.50;;;14.93;;
5684;SDS011;2865;53.114;9.130;2022-11-20T00:30:47;20.00;;;14.43;;
5684;SDS011;2865;53.114;9.130;2022-11-20T00:33:13;19.00;;;14.73;;
5684;SDS011;2865;53.114;9.130;2022-11-20T00:35:38;18.33;;;14.23;;
5684;SDS011;2865;53.114;9.130;2022-11-20T00:38:03;18.83;;;14.10;;
5684;SDS011;2865;53.114;9.130;2022-11-20T00:40:29;21.47;;;14.13;;
5684;SDS011;2865;53.114;9.130;2022-11-20T00:42:54;15.80;;;12.83;;
5684;SDS011;2865;53.114;9.130;2022-11-20T00:45:19;21.30;;;14.10;;
5684;SDS011;2865;53.114;9.130;2022-11-20T00:47:45;17.40;;;12.60;;
5684;SDS011;2865;53.114;9.130;2022-11-20T00:50:10;18.57;;;13.00;;
5684;SDS011;2865;53.114;9.130;2022-11-20T00:52:36;16.50;;;12.97;;
5684;SDS011;2865;53.114;9.130;2022-11-20T00:55:01;16.73;;;12.70;;
5684;SDS011;2865;53.114;9.130;2022-11-20T00:57:27;17.10;;;13.37;;
5684;SDS011;2865;53.114;9.130;2022-11-20T00:59:52;14.20;;;12.17;;
5684;SDS011;2865;53.114;9.130;2022-11-20T01:02:18;15.13;;;13.50;;
5684;SDS011;2865;53.114;9.130;2022-11-20T01:04:43;19.20;;;14.20;;
5684;SDS011;2865;53.114;9.130;2022-11-20T01:07:08;16.23;;;13.07;;
5684;SDS011;2865;53.114;9.130;2022-11-20T01:09:34;17.83;;;14.47;;
5684;SDS011;2865;53.114;9.130;2022-11-20T01:11:59;17.93;;;13.90;;
5684;SDS011;2865;53.114;9.130;2022-11-20T01:14:24;20.03;;;13.20;;
5684;SDS011;2865;53.114;9.130;2022-11-20T01:16:50;13.23;;;11.33;;
5684;SDS011;2865;53.114;9.130;2022-11-20T01:19:16;17.13;;;12.20;;
5684;SDS011;2865;53.114;9.130;2022-11-20T01:21:41;14.50;;;11.80;;
5684;SDS011;2865;53.114;9.130;2022-11-20T01:24:07;17.23;;;12.87;;
5684;SDS011;2865;53.114;9.130;2022-11-20T01:26:32;16.87;;;11.90;;
5684;SDS011;2865;53.114;9.130;2022-11-20T01:28:57;15.10;;;11.47;;
5684;SDS011;2865;53.114;9.130;2022-11-20T01:31:25;13.73;;;12.27;;
5684;SDS011;2865;53.114;9.130;2022-11-20T01:33:49;15.00;;;11.30;;
5684;SDS011;2865;53.114;9.130;2022-11-20T01:36:14;16.50;;;12.90;;
5684;SDS011;2865;53.114;9.130;2022-11-20T01:38:40;14.97;;;11.47;;
5684;SDS011;2865;53.114;9.130;2022-11-20T01:41:05;19.40;;;12.80;;
5684;SDS011;2865;53.114;9.130;2022-11-20T01:43:30;16.87;;;12.33;;
5684;SDS011;2865;53.114;9.130;2022-11-20T01:45:58;15.00;;;11.80;;
5684;SDS011;2865;53.114;9.130;2022-11-20T01:48:23;13.87;;;11.23;;
5684;SDS011;2865;53.114;9.130;2022-11-20T01:50:48;12.30;;;10.40;;
5684;SDS011;2865;53.114;9.130;2022-11-20T01:53:14;13.13;;;11.13;;
5684;SDS011;2865;53.114;9.130;2022-11-20T01:55:41;14.63;;;10.70;;
5684;SDS011;2865;53.114;9.130;2022-11-20T01:58:05;14.10;;;12.10;;
5684;SDS011;2865;53.114;9.130;2022-11-20T02:00:30;11.83;;;9.87;;
5684;SDS011;2865;53.114;9.130;2022-11-20T02:02:57;14.70;;;11.07;;
5684;SDS011;2865;53.114;9.130;2022-11-20T02:05:27;14.60;;;11.13;;
5684;SDS011;2865;53.114;9.130;2022-11-20T02:07:49;12.50;;;10.17;;
5684;SDS011;2865;53.114;9.130;2022-11-20T02:10:14;13.30;;;10.07;;
5684;SDS011;2865;53.114;9.130;2022-11-20T02:12:40;15.07;;;10.97;;
5684;SDS011;2865;53.114;9.130;2022-11-20T02:15:11;18.27;;;11.17;;
5684;SDS011;2865;53.114;9.130;2022-11-20T02:17:37;17.63;;;11.27;;
5684;SDS011;2865;53.114;9.130;2022-11-20T02:20:02;14.53;;;10.87;;
5684;SDS011;2865;53.114;9.130;2022-11-20T02:22:29;14.73;;;11.73;;
5684;SDS011;2865;53.114;9.130;2022-11-20T02:24:54;17.10;;;11.70;;
5684;SDS011;2865;53.114;9.130;2022-11-20T02:27:19;15.33;;;12.50;;
5684;SDS011;2865;53.114;9.130;2022-11-20T02:29:46;15.97;;;12.07;;
5684;SDS011;2865;53.114;9.130;2022-11-20T02:32:19;16.30;;;11.63;;
5684;SDS011;2865;53.114;9.130;2022-11-20T02:34:47;16.10;;;11.47;;
5684;SDS011;2865;53.114;9.130;2022-11-20T02:37:12;12.47;;;11.17;;
5684;SDS011;2865;53.114;9.130;2022-11-20T02:39:38;14.03;;;12.03;;
5684;SDS011;2865;53.114;9.130;2022-11-20T02:42:03;14.73;;;11.43;;
5684;SDS011;2865;53.114;9.130;2022-11-20T02:44:28;15.67;;;11.93;;
5684;SDS011;2865;53.114;9.130;2022-11-20T02:46:56;13.60;;;11.13;;
5684;SDS011;2865;53.114;9.130;2022-11-20T02:49:19;13.17;;;11.40;;
5684;SDS011;2865;53.114;9.130;2022-11-20T02:51:44;14.47;;;11.60;;
5684;SDS011;2865;53.114;9.130;2022-11-20T02:54:10;14.77;;;12.37;;
5684;SDS011;2865;53.114;9.130;2022-11-20T02:56:37;14.70;;;10.40;;
5684;SDS011;2865;53.114;9.130;2022-11-20T02:59:00;14.37;;;11.93;;
5684;SDS011;2865;53.114;9.130;2022-11-20T03:01:26;14.00;;;10.90;;
5684;SDS011;2865;53.114;9.130;2022-11-20T03:03:51;14.80;;;12.60;;
5684;SDS011;2865;53.114;9.130;2022-11-20T03:06:17;14.27;;;11.77;;
5684;SDS011;2865;53.114;9.130;2022-11-20T03:08:42;13.90;;;11.13;;
5684;SDS011;2865;53.114;9.130;2022-11-20T03:11:08;14.60;;;11.20;;
5684;SDS011;2865;53.114;9.130;2022-11-20T03:13:33;14.37;;;11.90;;
5684;SDS011;2865;53.114;9.130;2022-11-20T03:16:04;12.67;;;10.07;;
5684;SDS011;2865;53.114;9.130;2022-11-20T03:18:24;15.80;;;11.00;;
5684;SDS011;2865;53.114;9.130;2022-11-20T03:20:49;12.73;;;11.00;;
5684;SDS011;2865;53.114;9.130;2022-11-20T03:23:14;18.07;;;10.83;;
5684;SDS011;2865;53.114;9.130;2022-11-20T03:25:40;14.87;;;10.63;;
5684;SDS011;2865;53.114;9.130;2022-11-20T03:28:05;14.57;;;11.40;;
5684;SDS011;2865;53.114;9.130;2022-11-20T03:30:30;11.30;;;9.87;;
5684;SDS011;2865;53.114;9.130;2022-11-20T03:32:56;15.10;;;11.47;;
5684;SDS011;2865;53.114;9.130;2022-11-20T03:35:21;12.80;;;11.10;;
5684;SDS011;2865;53.114;9.130;2022-11-20T03:37:46;15.13;;;11.57;;
5684;SDS011;2865;53.114;9.130;2022-11-20T03:40:12;17.40;;;11.50;;
5684;SDS011;2865;53.114;9.130;2022-11-20T03:42:37;17.17;;;11.60;;
5684;SDS011;2865;53.114;9.130;2022-11-20T03:45:09;12.03;;;10.43;;
5684;SDS011;2865;53.114;9.130;2022-11-20T03:47:34;15.90;;;12.70;;
5684;SDS011;2865;53.114;9.130;2022-11-20T03:50:00;12.77;;;11.20;;
5684;SDS011;2865;53.114;9.130;2022-11-20T03:52:25;13.07;;;11.30;;
5684;SDS011;2865;53.114;9.130;2022-11-20T03:54:50;16.73;;;11.50;;
5684;SDS011;2865;53.114;9.130;2022-11-20T03:57:16;15.77;;;10.67;;
5684;SDS011;2865;53.114;9.130;2022-11-20T03:59:41;12.90;;;10.80;;
5684;SDS011;2865;53.114;9.130;2022-11-20T04:02:06;15.03;;;10.93;;
5684;SDS011;2865;53.114;9.130;2022-11-20T04:04:32;12.77;;;11.43;;
5684;SDS011;2865;53.114;9.130;2022-11-20T04:06:57;13.70;;;10.67;;
5684;SDS011;2865;53.114;9.130;2022-11-20T04:09:23;11.67;;;10.27;;
5684;SDS011;2865;53.114;9.130;2022-11-20T04:11:48;14.23;;;12.03;;
5684;SDS011;2865;53.114;9.130;2022-11-20T04:14:14;11.57;;;10.37;;
5684;SDS011;2865;53.114;9.130;2022-11-20T04:16:39;16.00;;;11.10;;
5684;SDS011;2865;53.114;9.130;2022-11-20T04:19:05;14.13;;;10.73;;
5684;SDS011;2865;53.114;9.130;2022-11-20T04:21:29;14.47;;;11.00;;
5684;SDS011;2865;53.114;9.130;2022-11-20T04:23:55;15.43;;;12.13;;
5684;SDS011;2865;53.114;9.130;2022-11-20T04:26:21;16.73;;;12.27;;
5684;SDS011;2865;53.114;9.130;2022-11-20T04:28:45;17.00;;;11.53;;
5684;SDS011;2865;53.114;9.130;2022-11-20T04:31:12;15.77;;;12.00;;
5684;SDS011;2865;53.114;9.130;2022-11-20T04:33:37;15.77;;;10.93;;
5684;SDS011;2865;53.114;9.130;2022-11-20T04:36:03;13.03;;;10.70;;
5684;SDS011;2865;53.114;9.130;2022-11-20T04:38:28;16.77;;;12.07;;
5684;SDS011;2865;53.114;9.130;2022-11-20T04:40:57;16.80;;;12.10;;
5684;SDS011;2865;53.114;9.130;2022-11-20T04:43:21;17.63;;;12.67;;
5684;SDS011;2865;53.114;9.130;2022-11-20T04:45:50;17.97;;;12.90;;
5684;SDS011;2865;53.114;9.130;2022-11-20T04:48:12;16.10;;;11.33;;
5684;SDS011;2865;53.114;9.130;2022-11-20T04:50:39;16.60;;;11.60;;
5684;SDS011;2865;53.114;9.130;2022-11-20T04:53:02;15.60;;;11.90;;
5684;SDS011;2865;53.114;9.130;2022-11-20T04:55:28;16.43;;;12.30;;
5684;SDS011;2865;53.114;9.130;2022-11-20T04:57:53;15.37;;;12.80;;
5684;SDS011;2865;53.114;9.130;2022-11-20T05:00:18;15.07;;;12.43;;
5684;SDS011;2865;53.114;9.130;2022-11-20T05:02:44;14.80;;;12.00;;
5684;SDS011;2865;53.114;9.130;2022-11-20T05:05:09;16.50;;;12.30;;
5684;SDS011;2865;53.114;9.130;2022-11-20T05:07:34;17.77;;;13.07;;
5684;SDS011;2865;53.114;9.130;2022-11-20T05:10:00;16.60;;;12.60;;
5684;SDS011;2865;53.114;9.130;2022-11-20T05:12:25;15.90;;;12.60;;
5684;SDS011;2865;53.114;9.130;2022-11-20T05:14:51;14.13;;;11.30;;
5684;SDS011;2865;53.114;9.130;2022-11-20T05:17:16;15.93;;;11.20;;
5684;SDS011;2865;53.114;9.130;2022-11-20T05:19:41;13.97;;;11.30;;
5684;SDS011;2865;53.114;9.130;2022-11-20T05:22:07;15.93;;;12.60;;
5684;SDS011;2865;53.114;9.130;2022-11-20T05:24:32;15.90;;;11.40;;
5684;SDS011;2865;53.114;9.130;2022-11-20T05:26:57;17.67;;;12.70;;
5684;SDS011;2865;53.114;9.130;2022-11-20T05:29:23;16.73;;;12.37;;
5684;SDS011;2865;53.114;9.130;2022-11-20T05:31:48;18.27;;;11.80;;
5684;SDS011;2865;53.114;9.130;2022-11-20T05:34:13;15.20;;;11.83;;
5684;SDS011;2865;53.114;9.130;2022-11-20T05:36:39;16.70;;;12.03;;
5684;SDS011;2865;53.114;9.130;2022-11-20T05:39:05;15.43;;;11.80;;
5684;SDS011;2865;53.114;9.130;2022-11-20T05:41:30;17.03;;;11.10;;
5684;SDS011;2865;53.114;9.130;2022-11-20T05:43:56;17.33;;;12.90;;
5684;SDS011;2865;53.114;9.130;2022-11-20T05:46:21;16.60;;;12.07;;
5684;SDS011;2865;53.114;9.130;2022-11-20T05:48:46;16.67;;;12.33;;
5684;SDS011;2865;53.114;9.130;2022-11-20T05:51:13;20.17;;;12.67;;
5684;SDS011;2865;53.114;9.130;2022-11-20T05:53:37;13.00;;;10.47;;
5684;SDS011;2865;53.114;9.130;2022-11-20T05:56:04;14.93;;;11.30;;
5684;SDS011;2865;53.114;9.130;2022-11-20T05:58:29;14.57;;;11.53;;
5684;SDS011;2865;53.114;9.130;2022-11-20T06:00:54;16.93;;;12.93;;
5684;SDS011;2865;53.114;9.130;2022-11-20T06:03:20;13.67;;;11.57;;
5684;SDS011;2865;53.114;9.130;2022-11-20T06:05:45;17.20;;;11.17;;
5684;SDS011;2865;53.114;9.130;2022-11-20T06:08:10;16.97;;;10.97;;
5684;SDS011;2865;53.114;9.130;2022-11-20T06:10:36;16.67;;;11.67;;
5684;SDS011;2865;53.114;9.130;2022-11-20T06:13:01;13.83;;;11.10;;
5684;SDS011;2865;53.114;9.130;2022-11-20T06:15:26;12.77;;;10.47;;
5684;SDS011;2865;53.114;9.130;2022-11-20T06:17:53;23.10;;;11.90;;
5684;SDS011;2865;53.114;9.130;2022-11-20T06:20:18;13.90;;;10.73;;
5684;SDS011;2865;53.114;9.130;2022-11-20T06:22:43;12.80;;;10.73;;
5684;SDS011;2865;53.114;9.130;2022-11-20T06:25:09;14.83;;;11.83;;
5684;SDS011;2865;53.114;9.130;2022-11-20T06:27:34;13.13;;;11.20;;
5684;SDS011;2865;53.114;9.130;2022-11-20T06:29:59;14.03;;;11.50;;
5684;SDS011;2865;53.114;9.130;2022-11-20T06:32:25;15.37;;;12.03;;
5684;SDS011;2865;53.114;9.130;2022-11-20T06:34:50;16.40;;;11.77;;
5684;SDS011;2865;53.114;9.130;2022-11-20T06:37:15;15.23;;;11.30;;
5684;SDS011;2865;53.114;9.130;2022-11-20T06:39:41;15.67;;;12.30;;
5684;SDS011;2865;53.114;9.130;2022-11-20T06:42:06;20.20;;;12.30;;
5684;SDS011;2865;53.114;9.130;2022-11-20T06:44:31;14.30;;;10.87;;
5684;SDS011;2865;53.114;9.130;2022-11-20T06:46:57;12.97;;;11.47;;
5684;SDS011;2865;53.114;9.130;2022-11-20T06:49:22;16.97;;;11.97;;
5684;SDS011;2865;53.114;9.130;2022-11-20T06:51:47;11.90;;;10.30;;
5684;SDS011;2865;53.114;9.130;2022-11-20T06:54:13;13.17;;;10.90;;
5684;SDS011;2865;53.114;9.130;2022-11-20T06:56:38;16.43;;;11.67;;
5684;SDS011;2865;53.114;9.130;2022-11-20T06:59:04;13.20;;;10.33;;
5684;SDS011;2865;53.114;9.130;2022-11-20T07:01:29;15.70;;;11.80;;
5684;SDS011;2865;53.114;9.130;2022-11-20T07:03:54;17.27;;;12.17;;
5684;SDS011;2865;53.114;9.130;2022-11-20T07:06:20;12.13;;;10.83;;
5684;SDS011;2865;53.114;9.130;2022-11-20T07:08:45;17.57;;;11.43;;
5684;SDS011;2865;53.114;9.130;2022-11-20T07:11:11;15.50;;;11.03;;
5684;SDS011;2865;53.114;9.130;2022-11-20T07:13:36;18.97;;;12.23;;
5684;SDS011;2865;53.114;9.130;2022-11-20T07:16:03;15.80;;;11.37;;
5684;SDS011;2865;53.114;9.130;2022-11-20T07:18:28;12.90;;;10.60;;
5684;SDS011;2865;53.114;9.130;2022-11-20T07:20:53;14.60;;;11.20;;
5684;SDS011;2865;53.114;9.130;2022-11-20T07:23:19;13.80;;;11.80;;
5684;SDS011;2865;53.114;9.130;2022-11-20T07:25:44;15.50;;;10.57;;
5684;SDS011;2865;53.114;9.130;2022-11-20T07:28:10;14.17;;;11.23;;
5684;SDS011;2865;53.114;9.130;2022-11-20T07:30:35;15.23;;;11.53;;
5684;SDS011;2865;53.114;9.130;2022-11-20T07:33:00;11.40;;;9.33;;
5684;SDS011;2865;53.114;9.130;2022-11-20T07:35:26;13.13;;;10.27;;
5684;SDS011;2865;53.114;9.130;2022-11-20T07:37:51;13.83;;;10.83;;
5684;SDS011;2865;53.114;9.130;2022-11-20T07:40:16;12.13;;;10.20;;
5684;SDS011;2865;53.114;9.130;2022-11-20T07:42:47;13.23;;;10.17;;
5684;SDS011;2865;53.114;9.130;2022-11-20T07:45:13;13.63;;;9.80;;
5684;SDS011;2865;53.114;9.130;2022-11-20T07:47:39;12.87;;;9.80;;
5684;SDS011;2865;53.114;9.130;2022-11-20T07:50:04;13.00;;;9.47;;
5684;SDS011;2865;53.114;9.130;2022-11-20T07:52:30;14.27;;;9.65;;
5684;SDS011;2865;53.114;9.130;2022-11-20T07:54:56;12.17;;;10.43;;
5684;SDS011;2865;53.114;9.130;2022-11-20T07:57:21;14.60;;;10.47;;
5684;SDS011;2865;53.114;9.130;2022-11-20T07:59:46;14.17;;;9.90;;
5684;SDS011;2865;53.114;9.130;2022-11-20T08:02:12;14.27;;;9.80;;
5684;SDS011;2865;53.114;9.130;2022-11-20T08:04:37;14.07;;;10.37;;
5684;SDS011;2865;53.114;9.130;2022-11-20T08:07:02;13.27;;;10.30;;
5684;SDS011;2865;53.114;9.130;2022-11-20T08:09:28;10.97;;;9.37;;
5684;SDS011;2865;53.114;9.130;2022-11-20T08:11:53;10.73;;;9.60;;
5684;SDS011;2865;53.114;9.130;2022-11-20T08:14:25;13.37;;;10.47;;
5684;SDS011;2865;53.114;9.130;2022-11-20T08:16:50;13.63;;;10.03;;
5684;SDS011;2865;53.114;9.130;2022-11-20T08:19:16;14.03;;;10.43;;
5684;SDS011;2865;53.114;9.130;2022-11-20T08:21:41;10.30;;;8.70;;
5684;SDS011;2865;53.114;9.130;2022-11-20T08:24:06;12.50;;;9.30;;
5684;SDS011;2865;53.114;9.130;2022-11-20T08:26:32;11.87;;;9.97;;
5684;SDS011;2865;53.114;9.130;2022-11-20T08:28:57;12.73;;;10.60;;
5684;SDS011;2865;53.114;9.130;2022-11-20T08:31:23;14.80;;;10.00;;
5684;SDS011;2865;53.114;9.130;2022-11-20T08:33:48;13.80;;;10.37;;
5684;SDS011;2865;53.114;9.130;2022-11-20T08:36:13;15.07;;;10.37;;
5684;SDS011;2865;53.114;9.130;2022-11-20T08:38:39;17.80;;;8.70;;
5684;SDS011;2865;53.114;9.130;2022-11-20T08:41:04;11.87;;;8.97;;
5684;SDS011;2865;53.114;9.130;2022-11-20T08:43:36;12.20;;;8.97;;
5684;SDS011;2865;53.114;9.130;2022-11-20T08:46:01;11.50;;;10.07;;
5684;SDS011;2865;53.114;9.130;2022-11-20T08:48:26;10.30;;;8.93;;
5684;SDS011;2865;53.114;9.130;2022-11-20T08:50:52;11.20;;;9.50;;
5684;SDS011;2865;53.114;9.130;2022-11-20T08:53:17;10.80;;;8.57;;
5684;SDS011;2865;53.114;9.130;2022-11-20T08:55:42;10.97;;;8.83;;
5684;SDS011;2865;53.114;9.130;2022-11-20T08:58:08;11.40;;;9.30;;
5684;SDS011;2865;53.114;9.130;2022-11-20T09:00:33;9.87;;;8.57;;
5684;SDS011;2865;53.114;9.130;2022-11-20T09:02:59;10.97;;;8.73;;
5684;SDS011;2865;53.114;9.130;2022-11-20T09:05:24;12.30;;;9.83;;
5684;SDS011;2865;53.114;9.130;2022-11-20T09:07:49;14.47;;;10.37;;
5684;SDS011;2865;53.114;9.130;2022-11-20T09:10:15;12.93;;;9.67;;
5684;SDS011;2865;53.114;9.130;2022-11-20T09:12:40;13.40;;;9.83;;
5684;SDS011;2865;53.114;9.130;2022-11-20T09:15:06;11.63;;;9.57;;
5684;SDS011;2865;53.114;9.130;2022-11-20T09:17:32;13.20;;;9.67;;
5684;SDS011;2865;53.114;9.130;2022-11-20T09:19:57;14.07;;;9.80;;
5684;SDS011;2865;53.114;9.130;2022-11-20T09:22:23;12.30;;;9.00;;
5684;SDS011;2865;53.114;9.130;2022-11-20T09:24:48;14.00;;;9.67;;
5684;SDS011;2865;53.114;9.130;2022-11-20T09:27:14;11.40;;;9.10;;
5684;SDS011;2865;53.114;9.130;2022-11-20T09:29:39;13.80;;;9.73;;
5684;SDS011;2865;53.114;9.130;2022-11-20T09:32:04;11.80;;;8.70;;
5684;SDS011;2865;53.114;9.130;2022-11-20T09:34:30;16.47;;;10.10;;
5684;SDS011;2865;53.114;9.130;2022-11-20T09:36:55;13.10;;;9.83;;
5684;SDS011;2865;53.114;9.130;2022-11-20T09:39:21;13.80;;;9.93;;
5684;SDS011;2865;53.114;9.130;2022-11-20T09:41:52;11.53;;;9.57;;
5684;SDS011;2865;53.114;9.130;2022-11-20T09:44:19;10.53;;;9.43;;
5684;SDS011;2865;53.114;9.130;2022-11-20T09:46:49;12.63;;;10.17;;
5684;SDS011;2865;53.114;9.130;2022-11-20T09:49:18;13.50;;;9.60;;
5684;SDS011;2865;53.114;9.130;2022-11-20T09:51:51;10.87;;;9.70;;
5684;SDS011;2865;53.114;9.130;2022-11-20T09:54:17;13.50;;;10.00;;
5684;SDS011;2865;53.114;9.130;2022-11-20T09:56:46;13.83;;;10.77;;
5684;SDS011;2865;53.114;9.130;2022-11-20T09:59:15;12.50;;;9.60;;
5684;SDS011;2865;53.114;9.130;2022-11-20T10:01:39;14.00;;;9.70;;
5684;SDS011;2865;53.114;9.130;2022-11-20T10:04:10;13.97;;;10.07;;
5684;SDS011;2865;53.114;9.130;2022-11-20T10:06:37;14.57;;;9.40;;
5684;SDS011;2865;53.114;9.130;2022-11-20T10:09:04;13.27;;;9.47;;
5684;SDS011;2865;53.114;9.130;2022-11-20T10:11:32;11.77;;;9.37;;
5684;SDS011;2865;53.114;9.130;2022-11-20T10:14:03;11.80;;;10.10;;
5684;SDS011;2865;53.114;9.130;2022-11-20T10:19:04;12.07;;;9.57;;
5684;SDS011;2865;53.114;9.130;2022-11-20T10:21:36;11.30;;;8.70;;
5684;SDS011;2865;53.114;9.130;2022-11-20T10:24:07;11.60;;;10.07;;
5684;SDS011;2865;53.114;9.130;2022-11-20T10:26:53;13.83;;;10.40;;
5684;SDS011;2865;53.114;9.130;2022-11-20T10:29:16;13.50;;;11.20;;
5684;SDS011;2865;53.114;9.130;2022-11-20T10:31:41;15.13;;;10.73;;
5684;SDS011;2865;53.114;9.130;2022-11-20T10:34:11;11.70;;;9.43;;
5684;SDS011;2865;53.114;9.130;2022-11-20T10:36:43;10.40;;;8.80;;
5684;SDS011;2865;53.114;9.130;2022-11-20T10:39:09;12.80;;;9.03;;
5684;SDS011;2865;53.114;9.130;2022-11-20T10:41:34;14.77;;;10.13;;
5684;SDS011;2865;53.114;9.130;2022-11-20T10:44:09;15.60;;;10.73;;
5684;SDS011;2865;53.114;9.130;2022-11-20T10:46:37;15.43;;;10.10;;
5684;SDS011;2865;53.114;9.130;2022-11-20T10:49:15;11.93;;;9.80;;
5684;SDS011;2865;53.114;9.130;2022-11-20T10:54:38;13.20;;;9.97;;
5684;SDS011;2865;53.114;9.130;2022-11-20T10:57:20;14.17;;;10.57;;
5684;SDS011;2865;53.114;9.130;2022-11-20T10:59:49;14.33;;;10.67;;
5684;SDS011;2865;53.114;9.130;2022-11-20T11:02:16;13.73;;;9.87;;
5684;SDS011;2865;53.114;9.130;2022-11-20T11:04:43;17.63;;;10.13;;
5684;SDS011;2865;53.114;9.130;2022-11-20T11:07:12;13.80;;;10.13;;
5684;SDS011;2865;53.114;9.130;2022-11-20T11:09:54;15.23;;;9.47;;
5684;SDS011;2865;53.114;9.130;2022-11-20T11:12:19;16.90;;;10.73;;
5684;SDS011;2865;53.114;9.130;2022-11-20T11:14:47;13.20;;;10.13;;
5684;SDS011;2865;53.114;9.130;2022-11-20T11:17:26;15.87;;;10.90;;
5684;SDS011;2865;53.114;9.130;2022-11-20T11:20:00;14.20;;;11.10;;
5684;SDS011;2865;53.114;9.130;2022-11-20T11:22:25;12.43;;;10.17;;
5684;SDS011;2865;53.114;9.130;2022-11-20T11:24:51;14.23;;;10.70;;
5684;SDS011;2865;53.114;9.130;2022-11-20T11:27:16;14.30;;;11.10;;
5684;SDS011;2865;53.114;9.130;2022-11-20T11:29:42;14.73;;;11.30;;
5684;SDS011;2865;53.114;9.130;2022-11-20T11:32:11;16.10;;;10.90;;
5684;SDS011;2865;53.114;9.130;2022-11-20T11:34:33;12.53;;;11.23;;
5684;SDS011;2865;53.114;9.130;2022-11-20T11:36:59;12.27;;;10.97;;
5684;SDS011;2865;53.114;9.130;2022-11-20T11:39:25;11.23;;;10.03;;
5684;SDS011;2865;53.114;9.130;2022-11-20T11:41:50;15.17;;;10.73;;
5684;SDS011;2865;53.114;9.130;2022-11-20T11:44:17;12.97;;;10.50;;
5684;SDS011;2865;53.114;9.130;2022-11-20T11:46:57;12.70;;;11.30;;
5684;SDS011;2865;53.114;9.130;2022-11-20T11:49:23;12.43;;;10.27;;
5684;SDS011;2865;53.114;9.130;2022-11-20T11:54:24;14.43;;;10.47;;
5684;SDS011;2865;53.114;9.130;2022-11-20T11:57:00;15.87;;;11.50;;
5684;SDS011;2865;53.114;9.130;2022-11-20T11:59:27;14.17;;;10.30;;
5684;SDS011;2865;53.114;9.130;2022-11-20T12:01:55;14.20;;;10.10;;
5684;SDS011;2865;53.114;9.130;2022-11-20T12:04:21;12.70;;;9.67;;
5684;SDS011;2865;53.114;9.130;2022-11-20T12:06:47;10.60;;;8.97;;
5684;SDS011;2865;53.114;9.130;2022-11-20T12:09:11;13.40;;;9.40;;
5684;SDS011;2865;53.114;9.130;2022-11-20T12:11:46;11.30;;;9.40;;
5684;SDS011;2865;53.114;9.130;2022-11-20T12:14:16;10.20;;;8.70;;
5684;SDS011;2865;53.114;9.130;2022-11-20T12:16:41;12.27;;;10.30;;
5684;SDS011;2865;53.114;9.130;2022-11-20T12:19:09;9.87;;;8.67;;
5684;SDS011;2865;53.114;9.130;2022-11-20T12:21:43;11.00;;;8.90;;
5684;SDS011;2865;53.114;9.130;2022-11-20T12:24:23;13.60;;;9.77;;
5684;SDS011;2865;53.114;9.130;2022-11-20T12:27:09;11.67;;;8.47;;
5684;SDS011;2865;53.114;9.130;2022-11-20T12:29:41;10.13;;;9.03;;
5684;SDS011;2865;53.114;9.130;2022-11-20T12:32:16;10.13;;;8.63;;
5684;SDS011;2865;53.114;9.130;2022-11-20T12:34:38;10.93;;;8.60;;
5684;SDS011;2865;53.114;9.130;2022-11-20T12:37:53;8.70;;;7.80;;
5684;SDS011;2865;53.114;9.130;2022-11-20T12:40:12;11.70;;;8.33;;
5684;SDS011;2865;53.114;9.130;2022-11-20T12:42:42;14.20;;;9.00;;
5684;SDS011;2865;53.114;9.130;2022-11-20T12:45:17;8.33;;;7.60;;
5684;SDS011;2865;53.114;9.130;2022-11-20T12:48:51;9.97;;;8.47;;
5684;SDS011;2865;53.114;9.130;2022-11-20T12:55:59;9.10;;;8.00;;
5684;SDS011;2865;53.114;9.130;2022-11-20T12:58:39;12.93;;;8.30;;
5684;SDS011;2865;53.114;9.130;2022-11-20T13:04:07;9.73;;;8.70;;
5684;SDS011;2865;53.114;9.130;2022-11-20T13:06:31;11.53;;;9.40;;
5684;SDS011;2865;53.114;9.130;2022-11-20T13:08:57;9.20;;;8.00;;
5684;SDS011;2865;53.114;9.130;2022-11-20T13:11:27;11.87;;;9.47;;
5684;SDS011;2865;53.114;9.130;2022-11-20T13:16:40;14.87;;;9.67;;
5684;SDS011;2865;53.114;9.130;2022-11-20T13:19:03;14.60;;;10.97;;
5684;SDS011;2865;53.114;9.130;2022-11-20T13:21:36;17.70;;;13.60;;
5684;SDS011;2865;53.114;9.130;2022-11-20T13:24:04;17.20;;;12.13;;
5684;SDS011;2865;53.114;9.130;2022-11-20T13:26:32;20.53;;;12.67;;
5684;SDS011;2865;53.114;9.130;2022-11-20T13:29:02;21.60;;;13.57;;
5684;SDS011;2865;53.114;9.130;2022-11-20T13:31:29;20.07;;;13.20;;
5684;SDS011;2865;53.114;9.130;2022-11-20T13:33:53;17.73;;;13.00;;
5684;SDS011;2865;53.114;9.130;2022-11-20T13:36:21;18.77;;;13.73;;
5684;SDS011;2865;53.114;9.130;2022-11-20T13:38:47;18.27;;;12.30;;
5684;SDS011;2865;53.114;9.130;2022-11-20T13:41:11;16.20;;;12.50;;
5684;SDS011;2865;53.114;9.130;2022-11-20T13:43:58;16.60;;;12.53;;
5684;SDS011;2865;53.114;9.130;2022-11-20T13:46:35;14.93;;;12.50;;
5684;SDS011;2865;53.114;9.130;2022-11-20T13:49:00;18.93;;;11.80;;
5684;SDS011;2865;53.114;9.130;2022-11-20T13:51:40;14.43;;;12.20;;
5684;SDS011;2865;53.114;9.130;2022-11-20T13:54:22;16.00;;;10.90;;
5684;SDS011;2865;53.114;9.130;2022-11-20T13:56:50;14.77;;;11.67;;
5684;SDS011;2865;53.114;9.130;2022-11-20T13:59:38;16.40;;;11.47;;
5684;SDS011;2865;53.114;9.130;2022-11-20T14:02:02;15.33;;;11.90;;
5684;SDS011;2865;53.114;9.130;2022-11-20T14:04:32;13.30;;;10.40;;
5684;SDS011;2865;53.114;9.130;2022-11-20T14:06:56;13.30;;;10.53;;
5684;SDS011;2865;53.114;9.130;2022-11-20T14:09:26;13.80;;;10.43;;
5684;SDS011;2865;53.114;9.130;2022-11-20T14:11:50;13.70;;;10.80;;
5684;SDS011;2865;53.114;9.130;2022-11-20T14:14:17;16.10;;;10.60;;
5684;SDS011;2865;53.114;9.130;2022-11-20T14:16:41;11.40;;;9.27;;
5684;SDS011;2865;53.114;9.130;2022-11-20T14:21:53;13.00;;;9.97;;
5684;SDS011;2865;53.114;9.130;2022-11-20T14:24:32;10.60;;;9.23;;
5684;SDS011;2865;53.114;9.130;2022-11-20T14:26:58;11.07;;;9.23;;
5684;SDS011;2865;53.114;9.130;2022-11-20T14:29:27;10.57;;;9.27;;
5684;SDS011;2865;53.114;9.130;2022-11-20T14:31:51;13.63;;;10.13;;
5684;SDS011;2865;53.114;9.130;2022-11-20T14:34:17;9.53;;;8.63;;
5684;SDS011;2865;53.114;9.130;2022-11-20T14:36:42;10.40;;;9.30;;
5684;SDS011;2865;53.114;9.130;2022-11-20T14:39:09;11.30;;;9.03;;
5684;SDS011;2865;53.114;9.130;2022-11-20T14:41:33;9.80;;;8.80;;
5684;SDS011;2865;53.114;9.130;2022-11-20T14:43:58;10.07;;;8.80;;
5684;SDS011;2865;53.114;9.130;2022-11-20T14:46:23;11.10;;;9.60;;
5684;SDS011;2865;53.114;9.130;2022-11-20T14:48:50;9.77;;;8.47;;
5684;SDS011;2865;53.114;9.130;2022-11-20T14:53:53;11.70;;;8.57;;
5684;SDS011;2865;53.114;9.130;2022-11-20T14:56:21;13.63;;;8.20;;
5684;SDS011;2865;53.114;9.130;2022-11-20T14:58:54;9.83;;;8.83;;
5684;SDS011;2865;53.114;9.130;2022-11-20T15:01:11;8.67;;;7.83;;
5684;SDS011;2865;53.114;9.130;2022-11-20T15:03:37;9.67;;;8.33;;
5684;SDS011;2865;53.114;9.130;2022-11-20T15:06:02;11.97;;;8.87;;
5684;SDS011;2865;53.114;9.130;2022-11-20T15:08:27;11.30;;;9.20;;
5684;SDS011;2865;53.114;9.130;2022-11-20T15:10:53;9.53;;;8.57;;
5684;SDS011;2865;53.114;9.130;2022-11-20T15:13:24;15.90;;;9.13;;
5684;SDS011;2865;53.114;9.130;2022-11-20T15:15:50;13.95;;;11.35;;